Nearby METAR Reports

 

KSJC - San Jose, California, USA
Distance from station: NE 9mi, 14km
Updated: Sat, 04-Jul-2015 2:53pm PDT
Few Clouds
Few Clouds
 Wind from WNW
Wind: WNW 13 mph , 20 km/h
Temperature: 79°F , 26°C
Dew Point: 61°F , 16°C
Humidity: 54%
Barometer: 29.82 inHg , 1009.8 hPa
Clouds: Few Clouds
Visibility: 10 miles , 16 km
Cloud details: Few Clouds 14000 ft
2015/07/04 21:53 KSJC 042153Z 30011KT 10SM FEW140 26/16 A2982 RMK AO2 SLP098 T02560161 $
KNUQ - Moffett Nas/Mtn, California, USA
Distance from station: N 9mi, 14km
Updated: Sat, 04-Jul-2015 2:56pm PDT
Clear
Clear
 Wind from NNW
Wind: NNW 14 mph , 22 km/h
Temperature: 75°F , 24°C
Dew Point: 61°F , 16°C
Humidity: 61%
Barometer: 29.84 inHg , 1010.5 hPa
Clouds: Clear
Visibility: 10 miles , 16 km
2015/07/04 21:56 KNUQ 042156Z AUTO 34012KT 10SM CLR 24/16 A2984 RMK AO2 SLP108 T02390161 TSNO
 
KPAO - Palo Alto, California, USA
Distance from station: NNW 14mi, 23km
Updated: Sat, 04-Jul-2015 2:47pm PDT
Clear
Clear
 Wind from NNW
Wind: NNW 18 mph , 30 km/h
Temperature: 73°F , 23°C
Dew Point: 63°F , 17°C
Humidity: 69%
Barometer: 29.84 inHg , 1010.5 hPa
Clouds: Clear
Visibility: 10 miles , 16 km
2015/07/04 21:47 KPAO 042147Z 34016KT 10SM SKC 23/17 A2984
KRHV - San Jose/Reid, California, USA
Distance from station: ENE 12mi, 19km
Updated: Sat, 04-Jul-2015 2:47pm PDT
Clear
Clear
 Wind from NW
Wind: NW 151 mph , 243 km/h
Temperature: 84°F , 29°C
Heat Index: 84°F , 29°C
Dew Point: 61°F , 16°C
Humidity: 45%
Barometer: 29.84 inHg , 1010.5 hPa
Clouds: Clear
Visibility: 10 miles , 16 km
2015/07/04 21:47 KRHV 042147Z 320131KT 10SM SKC 29/16 A2984
 
KOAK - Oakland, California, USA
Distance from station: NNW 31mi, 50km
Updated: Sat, 04-Jul-2015 2:53pm PDT
Few Clouds
Few Clouds
 Wind from WNW
Wind: WNW 20 mph , 31 km/h
Temperature: 70°F , 21°C
Dew Point: 57°F , 14°C
Humidity: 64%
Barometer: 29.85 inHg , 1010.8 hPa
Clouds: Few Clouds
Visibility: 10 miles , 16 km
Cloud details: Few Clouds 800 ft
2015/07/04 21:53 KOAK 042153Z 30017KT 10SM FEW008 21/14 A2985 RMK AO2 SLP107 T02060139
KSQL - San Carlos Airpo, California, USA
Distance from station: NW 21mi, 34km
Updated: Sat, 04-Jul-2015 2:55pm PDT
Few Clouds
Few Clouds
 Wind from WNW
Wind: WNW 12 mph , 19 km/h
Temperature: 81°F , 27°C
Heat Index: 81°F , 27°C
Dew Point: 57°F , 14°C
Humidity: 45%
Barometer: 29.84 inHg , 1010.5 hPa
Clouds: Few Clouds
Visibility: 10 miles , 16 km
Cloud details: Few Clouds 15000 ft
2015/07/04 21:55 KSQL 042155Z 30010KT 10SM FEW150 27/14 A2984
 
KSFO - San Francisco, California, USA
Distance from station: NW 30mi, 49km
Updated: Sat, 04-Jul-2015 2:56pm PDT
Few Clouds
Few Clouds
 Wind from WNW
Wind: WNW 25 mph , 41 km/h, Gust: 32 mph , 52 km/h
Temperature: 70°F , 21°C
Dew Point: 57°F , 14°C
Humidity: 64%
Barometer: 29.84 inHg , 1010.5 hPa
Clouds: Few Clouds
Visibility: 10 miles , 16 km
Cloud details: Few Clouds 700 ft
2015/07/04 21:56 KSFO 042156Z 29022G28KT 10SM FEW007 21/14 A2984 RMK AO2 PK WND 29028/2155 SLP105 T02110139
KE16 - San Martin, California, USA
Distance from station: ESE 27mi, 43km
Updated: Sat, 04-Jul-2015 3:15pm PDT
Clear
Clear
 Wind from SSE
Wind: SSE 12 mph , 19 km/h
Temperature: 84°F , 29°C
Heat Index: 84°F , 29°C
Dew Point: 59°F , 15°C
Humidity: 43%
Barometer: 29.82 inHg , 1009.8 hPa
Clouds: Clear
Visibility: 10 miles , 16 km
2015/07/04 22:15 KE16 042215Z AUTO 16010KT 10SM CLR 29/15 A2982 RMK AO2 SOUTH WIND SOCK OUT OF SERVICE
 
KWVI - Watsonville, California, USA
Distance from station: SSE 27mi, 44km
Updated: Sat, 04-Jul-2015 2:53pm PDT
Mostly cloudy
Mostly cloudy
 Wind from WSW
Wind: WSW 12 mph , 19 km/h
Temperature: 66°F , 19°C
Dew Point: 57°F , 14°C
Humidity: 73%
Barometer: 29.90 inHg , 1012.5 hPa
Clouds: Mostly cloudy
Visibility: 10 miles , 16 km
Cloud details: Mostly cloudy 1000 ft
2015/07/04 21:53 KWVI 042153Z AUTO 24010KT 10SM BKN010 19/14 A2990 RMK AO2 SLP125 T01940144
KHAF - Half Moon Bay, California, USA
Distance from station: WNW 31mi, 50km
Updated: Sat, 04-Jul-2015 3:15pm PDT
Mostly cloudy
Mostly cloudy
 Wind from SW
Wind: SW 7 mph , 11 km/h
Temperature: 63°F , 17°C
Dew Point: 59°F , 15°C
Humidity: 88%
Barometer: 29.90 inHg , 1012.5 hPa
Clouds: Mostly cloudy
Visibility: 7 miles , 11 km
Cloud details: Mostly cloudy 600 ft
2015/07/04 22:15 KHAF 042215Z AUTO 23006KT 7SM BKN006 17/15 A2990 RMK AO2
 
KHWD - Hayward, California, USA
Distance from station: N 28mi, 44km
Updated: Sat, 04-Jul-2015 2:54pm PDT
Clear
Clear
 Wind from WNW
Wind: WNW 15 mph , 24 km/h
Temperature: 73°F , 23°C
Dew Point: 59°F , 15°C
Humidity: 61%
Barometer: 29.84 inHg , 1010.5 hPa
Clouds: Clear
Visibility: 10 miles , 16 km
2015/07/04 21:54 KHWD 042154Z 30013KT 10SM CLR 23/15 A2984 RMK AO2 SLP114 T02330150
KLVK - Livermore, California, USA
Distance from station: NNE 31mi, 51km
Updated: Sat, 04-Jul-2015 2:53pm PDT
Clear
Clear
 Wind from WNW
Wind: WNW 14 mph , 22 km/h
Temperature: 91°F , 33°C
Dew Point: 52°F , 11°C
Humidity: 26%
Barometer: 29.80 inHg , 1009.1 hPa
Clouds: Clear
Visibility: 10 miles , 16 km
2015/07/04 21:53 KLVK 042153Z 29012KT 10SM CLR 33/11 A2980 RMK AO2 SLP085 T03330106